<?xml version='1.0' encoding='UTF-8'?>
<gpx version="1.1" creator="https://www.komoot.de" xmlns="http://www.topografix.com/GPX/1/1" xmlns:xsi="http://www.w3.org/2001/XMLSchema-instance" xsi:schemaLocation="http://www.topografix.com/GPX/1/1 http://www.topografix.com/GPX/1/1/gpx.xsd">
  <metadata>
    <name>Wanderung nach Alte Brücke</name>
    <author>
      <link href="https://www.komoot.de">
        <text>komoot</text>
        <type>text/html</type>
      </link>
    </author>
  </metadata>
  <trk>
    <name>Wanderung nach Alte Brücke</name>
    <trkseg>
      <trkpt lat="48.719857" lon="11.330666">
        <ele>374.269556</ele>
        <time>2022-10-21T08:13:15.849Z</time>
      </trkpt>
      <trkpt lat="48.719940" lon="11.330662">
        <ele>374.269556</ele>
        <time>2022-10-21T08:13:24.214Z</time>
      </trkpt>
      <trkpt lat="48.719419" lon="11.326664">
        <ele>374.266374</ele>
        <time>2022-10-21T08:17:53.535Z</time>
      </trkpt>
      <trkpt lat="48.719346" lon="11.323326">
        <ele>374.679129</ele>
        <time>2022-10-21T08:21:35.500Z</time>
      </trkpt>
      <trkpt lat="48.719290" lon="11.323044">
        <ele>374.717491</ele>
        <time>2022-10-21T08:21:55.095Z</time>
      </trkpt>
      <trkpt lat="48.719064" lon="11.322694">
        <ele>374.781286</ele>
        <time>2022-10-21T08:22:27.717Z</time>
      </trkpt>
      <trkpt lat="48.719036" lon="11.322682">
        <ele>374.787032</ele>
        <time>2022-10-21T08:22:30.657Z</time>
      </trkpt>
      <trkpt lat="48.718962" lon="11.322651">
        <ele>374.802190</ele>
        <time>2022-10-21T08:22:38.335Z</time>
      </trkpt>
      <trkpt lat="48.718720" lon="11.322447">
        <ele>374.856864</ele>
        <time>2022-10-21T08:23:06.246Z</time>
      </trkpt>
      <trkpt lat="48.718664" lon="11.322325">
        <ele>374.876225</ele>
        <time>2022-10-21T08:23:16.147Z</time>
      </trkpt>
      <trkpt lat="48.718493" lon="11.321951">
        <ele>374.935499</ele>
        <time>2022-10-21T08:23:46.510Z</time>
      </trkpt>
      <trkpt lat="48.718314" lon="11.321563">
        <ele>374.908445</ele>
        <time>2022-10-21T08:24:17.920Z</time>
      </trkpt>
      <trkpt lat="48.718248" lon="11.321360">
        <ele>374.892346</ele>
        <time>2022-10-21T08:24:32.930Z</time>
      </trkpt>
      <trkpt lat="48.718199" lon="11.321053">
        <ele>374.869878</ele>
        <time>2022-10-21T08:24:53.792Z</time>
      </trkpt>
      <trkpt lat="48.718195" lon="11.321012">
        <ele>374.866930</ele>
        <time>2022-10-21T08:24:56.523Z</time>
      </trkpt>
      <trkpt lat="48.718191" lon="11.320978">
        <ele>374.864473</ele>
        <time>2022-10-21T08:24:58.803Z</time>
      </trkpt>
      <trkpt lat="48.718102" lon="11.320431">
        <ele>374.824396</ele>
        <time>2022-10-21T08:25:36.160Z</time>
      </trkpt>
      <trkpt lat="48.718048" lon="11.320327">
        <ele>374.814981</ele>
        <time>2022-10-21T08:25:44.902Z</time>
      </trkpt>
      <trkpt lat="48.717949" lon="11.320176">
        <ele>374.799838</ele>
        <time>2022-10-21T08:25:59.036Z</time>
      </trkpt>
      <trkpt lat="48.717884" lon="11.320090">
        <ele>374.790535</ele>
        <time>2022-10-21T08:26:07.673Z</time>
      </trkpt>
      <trkpt lat="48.717818" lon="11.320004">
        <ele>374.781151</ele>
        <time>2022-10-21T08:26:16.523Z</time>
      </trkpt>
      <trkpt lat="48.717466" lon="11.319601">
        <ele>374.719274</ele>
        <time>2022-10-21T08:27:01.024Z</time>
      </trkpt>
      <trkpt lat="48.717410" lon="11.319481">
        <ele>374.696617</ele>
        <time>2022-10-21T08:27:10.806Z</time>
      </trkpt>
      <trkpt lat="48.717202" lon="11.319312">
        <ele>374.641478</ele>
        <time>2022-10-21T08:27:34.557Z</time>
      </trkpt>
      <trkpt lat="48.717000" lon="11.319329">
        <ele>374.594211</ele>
        <time>2022-10-21T08:27:54.887Z</time>
      </trkpt>
      <trkpt lat="48.716969" lon="11.318975">
        <ele>374.539164</ele>
        <time>2022-10-21T08:28:18.498Z</time>
      </trkpt>
      <trkpt lat="48.716883" lon="11.318775">
        <ele>374.502364</ele>
        <time>2022-10-21T08:28:34.319Z</time>
      </trkpt>
      <trkpt lat="48.716727" lon="11.318414">
        <ele>374.435843</ele>
        <time>2022-10-21T08:29:03.049Z</time>
      </trkpt>
      <trkpt lat="48.716667" lon="11.318190">
        <ele>374.398576</ele>
        <time>2022-10-21T08:29:19.078Z</time>
      </trkpt>
      <trkpt lat="48.716701" lon="11.317802">
        <ele>374.338241</ele>
        <time>2022-10-21T08:29:45.077Z</time>
      </trkpt>
      <trkpt lat="48.716883" lon="11.316659">
        <ele>374.335108</ele>
        <time>2022-10-21T08:31:02.835Z</time>
      </trkpt>
      <trkpt lat="48.716267" lon="11.316834">
        <ele>374.343341</ele>
        <time>2022-10-21T08:32:05.789Z</time>
      </trkpt>
      <trkpt lat="48.716242" lon="11.316840">
        <ele>374.343674</ele>
        <time>2022-10-21T08:32:08.434Z</time>
      </trkpt>
      <trkpt lat="48.716102" lon="11.316876">
        <ele>374.345539</ele>
        <time>2022-10-21T08:32:22.738Z</time>
      </trkpt>
      <trkpt lat="48.715959" lon="11.316924">
        <ele>374.347463</ele>
        <time>2022-10-21T08:32:37.510Z</time>
      </trkpt>
      <trkpt lat="48.715829" lon="11.316968">
        <ele>374.349213</ele>
        <time>2022-10-21T08:32:50.965Z</time>
      </trkpt>
      <trkpt lat="48.715554" lon="11.317060">
        <ele>374.311447</ele>
        <time>2022-10-21T08:33:19.136Z</time>
      </trkpt>
      <trkpt lat="48.715506" lon="11.317076">
        <ele>374.304774</ele>
        <time>2022-10-21T08:33:24.068Z</time>
      </trkpt>
      <trkpt lat="48.715236" lon="11.317167">
        <ele>374.267221</ele>
        <time>2022-10-21T08:33:51.843Z</time>
      </trkpt>
      <trkpt lat="48.715062" lon="11.317225">
        <ele>374.243032</ele>
        <time>2022-10-21T08:34:09.700Z</time>
      </trkpt>
      <trkpt lat="48.715040" lon="11.317232">
        <ele>374.239980</ele>
        <time>2022-10-21T08:34:11.951Z</time>
      </trkpt>
      <trkpt lat="48.714655" lon="11.317332">
        <ele>374.186947</ele>
        <time>2022-10-21T08:34:51.243Z</time>
      </trkpt>
      <trkpt lat="48.714493" lon="11.317374">
        <ele>374.164632</ele>
        <time>2022-10-21T08:35:07.820Z</time>
      </trkpt>
      <trkpt lat="48.714161" lon="11.317477">
        <ele>374.118622</ele>
        <time>2022-10-21T08:35:41.908Z</time>
      </trkpt>
      <trkpt lat="48.713879" lon="11.317565">
        <ele>374.049205</ele>
        <time>2022-10-21T08:36:10.760Z</time>
      </trkpt>
      <trkpt lat="48.713722" lon="11.317614">
        <ele>374.001581</ele>
        <time>2022-10-21T08:36:26.930Z</time>
      </trkpt>
      <trkpt lat="48.713619" lon="11.317646">
        <ele>373.970342</ele>
        <time>2022-10-21T08:36:37.476Z</time>
      </trkpt>
      <trkpt lat="48.713285" lon="11.317652">
        <ele>373.871102</ele>
        <time>2022-10-21T08:37:11.167Z</time>
      </trkpt>
      <trkpt lat="48.713233" lon="11.317643">
        <ele>373.855552</ele>
        <time>2022-10-21T08:37:16.468Z</time>
      </trkpt>
      <trkpt lat="48.712502" lon="11.317359">
        <ele>373.631345</ele>
        <time>2022-10-21T08:38:32.602Z</time>
      </trkpt>
      <trkpt lat="48.711918" lon="11.316861">
        <ele>373.644904</ele>
        <time>2022-10-21T08:39:39.957Z</time>
      </trkpt>
      <trkpt lat="48.711844" lon="11.316771">
        <ele>373.660024</ele>
        <time>2022-10-21T08:39:49.499Z</time>
      </trkpt>
      <trkpt lat="48.711708" lon="11.316604">
        <ele>373.687918</ele>
        <time>2022-10-21T08:40:07.023Z</time>
      </trkpt>
      <trkpt lat="48.710979" lon="11.315384">
        <ele>373.871932</ele>
        <time>2022-10-21T08:41:57.114Z</time>
      </trkpt>
      <trkpt lat="48.709558" lon="11.312807">
        <ele>375.398012</ele>
        <time>2022-10-21T08:45:44.161Z</time>
      </trkpt>
      <trkpt lat="48.709343" lon="11.312003">
        <ele>375.924467</ele>
        <time>2022-10-21T08:46:42.567Z</time>
      </trkpt>
      <trkpt lat="48.709374" lon="11.309601">
        <ele>378.119609</ele>
        <time>2022-10-21T08:49:28.781Z</time>
      </trkpt>
      <trkpt lat="48.709337" lon="11.309252">
        <ele>378.549127</ele>
        <time>2022-10-21T08:49:54.050Z</time>
      </trkpt>
      <trkpt lat="48.709257" lon="11.308946">
        <ele>378.949077</ele>
        <time>2022-10-21T08:50:17.489Z</time>
      </trkpt>
      <trkpt lat="48.708730" lon="11.307799">
        <ele>380.617298</ele>
        <time>2022-10-21T08:51:57.037Z</time>
      </trkpt>
      <trkpt lat="48.708678" lon="11.307831">
        <ele>380.716126</ele>
        <time>2022-10-21T08:52:03.144Z</time>
      </trkpt>
      <trkpt lat="48.708379" lon="11.308016">
        <ele>381.284828</ele>
        <time>2022-10-21T08:52:38.068Z</time>
      </trkpt>
      <trkpt lat="48.707444" lon="11.307587">
        <ele>383.005076</ele>
        <time>2022-10-21T08:54:21.359Z</time>
      </trkpt>
      <trkpt lat="48.706524" lon="11.307265">
        <ele>383.692081</ele>
        <time>2022-10-21T08:55:58.577Z</time>
      </trkpt>
      <trkpt lat="48.704987" lon="11.304801">
        <ele>384.505328</ele>
        <time>2022-10-21T08:59:45.012Z</time>
      </trkpt>
      <trkpt lat="48.703523" lon="11.302454">
        <ele>384.176736</ele>
        <time>2022-10-21T09:03:19.101Z</time>
      </trkpt>
      <trkpt lat="48.703413" lon="11.302536">
        <ele>384.146337</ele>
        <time>2022-10-21T09:03:31.519Z</time>
      </trkpt>
      <trkpt lat="48.703371" lon="11.302568">
        <ele>384.121443</ele>
        <time>2022-10-21T09:03:36.200Z</time>
      </trkpt>
      <trkpt lat="48.702833" lon="11.303458">
        <ele>383.333647</ele>
        <time>2022-10-21T09:04:57.282Z</time>
      </trkpt>
      <trkpt lat="48.702446" lon="11.303636">
        <ele>382.933639</ele>
        <time>2022-10-21T09:05:38.772Z</time>
      </trkpt>
      <trkpt lat="48.702176" lon="11.303603">
        <ele>382.665728</ele>
        <time>2022-10-21T09:06:06.508Z</time>
      </trkpt>
      <trkpt lat="48.701953" lon="11.303732">
        <ele>382.429642</ele>
        <time>2022-10-21T09:06:31.042Z</time>
      </trkpt>
      <trkpt lat="48.701279" lon="11.304413">
        <ele>381.335176</ele>
        <time>2022-10-21T09:07:54.731Z</time>
      </trkpt>
      <trkpt lat="48.700870" lon="11.304907">
        <ele>380.610557</ele>
        <time>2022-10-21T09:08:48.588Z</time>
      </trkpt>
      <trkpt lat="48.700714" lon="11.305062">
        <ele>380.352114</ele>
        <time>2022-10-21T09:09:07.726Z</time>
      </trkpt>
      <trkpt lat="48.700649" lon="11.305061">
        <ele>380.262060</ele>
        <time>2022-10-21T09:09:14.477Z</time>
      </trkpt>
      <trkpt lat="48.700625" lon="11.305057">
        <ele>380.228611</ele>
        <time>2022-10-21T09:09:16.882Z</time>
      </trkpt>
      <trkpt lat="48.700585" lon="11.305073">
        <ele>380.171297</ele>
        <time>2022-10-21T09:09:21.154Z</time>
      </trkpt>
      <trkpt lat="48.700503" lon="11.305139">
        <ele>380.042662</ele>
        <time>2022-10-21T09:09:30.653Z</time>
      </trkpt>
      <trkpt lat="48.700483" lon="11.305063">
        <ele>379.967852</ele>
        <time>2022-10-21T09:09:36.651Z</time>
      </trkpt>
      <trkpt lat="48.700503" lon="11.305139">
        <ele>379.893042</ele>
        <time>2022-10-21T09:09:42.455Z</time>
      </trkpt>
      <trkpt lat="48.700406" lon="11.305270">
        <ele>379.765660</ele>
        <time>2022-10-21T09:09:55.716Z</time>
      </trkpt>
      <trkpt lat="48.700364" lon="11.305473">
        <ele>379.637053</ele>
        <time>2022-10-21T09:10:10.331Z</time>
      </trkpt>
      <trkpt lat="48.700151" lon="11.305945">
        <ele>379.291394</ele>
        <time>2022-10-21T09:10:48.936Z</time>
      </trkpt>
      <trkpt lat="48.699769" lon="11.306321">
        <ele>378.874150</ele>
        <time>2022-10-21T09:11:35.053Z</time>
      </trkpt>
      <trkpt lat="48.699436" lon="11.306986">
        <ele>378.369522</ele>
        <time>2022-10-21T09:12:31.058Z</time>
      </trkpt>
      <trkpt lat="48.699379" lon="11.307533">
        <ele>378.090836</ele>
        <time>2022-10-21T09:13:08.492Z</time>
      </trkpt>
      <trkpt lat="48.699641" lon="11.309250">
        <ele>377.346500</ele>
        <time>2022-10-21T09:15:06.570Z</time>
      </trkpt>
      <trkpt lat="48.699436" lon="11.310409">
        <ele>376.983226</ele>
        <time>2022-10-21T09:16:26.308Z</time>
      </trkpt>
      <trkpt lat="48.699422" lon="11.311964">
        <ele>376.735987</ele>
        <time>2022-10-21T09:18:09.612Z</time>
      </trkpt>
      <trkpt lat="48.699549" lon="11.312694">
        <ele>376.646831</ele>
        <time>2022-10-21T09:18:59.662Z</time>
      </trkpt>
      <trkpt lat="48.699712" lon="11.314303">
        <ele>376.775065</ele>
        <time>2022-10-21T09:20:47.349Z</time>
      </trkpt>
      <trkpt lat="48.699402" lon="11.315676">
        <ele>377.227243</ele>
        <time>2022-10-21T09:22:24.511Z</time>
      </trkpt>
      <trkpt lat="48.699351" lon="11.315664">
        <ele>377.288037</ele>
        <time>2022-10-21T09:22:29.694Z</time>
      </trkpt>
      <trkpt lat="48.699402" lon="11.315676">
        <ele>377.348831</ele>
        <time>2022-10-21T09:22:35.373Z</time>
      </trkpt>
      <trkpt lat="48.699289" lon="11.315826">
        <ele>377.525795</ele>
        <time>2022-10-21T09:22:51.154Z</time>
      </trkpt>
      <trkpt lat="48.699197" lon="11.315798">
        <ele>377.636329</ele>
        <time>2022-10-21T09:23:00.761Z</time>
      </trkpt>
      <trkpt lat="48.699193" lon="11.316064">
        <ele>377.843183</ele>
        <time>2022-10-21T09:23:19.464Z</time>
      </trkpt>
      <trkpt lat="48.699319" lon="11.316969">
        <ele>378.562252</ele>
        <time>2022-10-21T09:24:24.448Z</time>
      </trkpt>
      <trkpt lat="48.699682" lon="11.319218">
        <ele>379.551980</ele>
        <time>2022-10-21T09:27:02.740Z</time>
      </trkpt>
      <trkpt lat="48.699689" lon="11.319914">
        <ele>379.778206</ele>
        <time>2022-10-21T09:27:48.906Z</time>
      </trkpt>
      <trkpt lat="48.699919" lon="11.320733">
        <ele>379.460355</ele>
        <time>2022-10-21T09:28:48.498Z</time>
      </trkpt>
      <trkpt lat="48.700096" lon="11.321362">
        <ele>379.045692</ele>
        <time>2022-10-21T09:29:35.001Z</time>
      </trkpt>
      <trkpt lat="48.700281" lon="11.321629">
        <ele>378.810936</ele>
        <time>2022-10-21T09:30:01.496Z</time>
      </trkpt>
      <trkpt lat="48.700592" lon="11.322382">
        <ele>378.272264</ele>
        <time>2022-10-21T09:31:01.293Z</time>
      </trkpt>
      <trkpt lat="48.700873" lon="11.322818">
        <ele>378.296209</ele>
        <time>2022-10-21T09:31:41.909Z</time>
      </trkpt>
      <trkpt lat="48.700948" lon="11.323072">
        <ele>378.348584</ele>
        <time>2022-10-21T09:32:00.325Z</time>
      </trkpt>
      <trkpt lat="48.701337" lon="11.323134">
        <ele>378.460135</ele>
        <time>2022-10-21T09:32:39.803Z</time>
      </trkpt>
      <trkpt lat="48.701654" lon="11.323504">
        <ele>378.574254</ele>
        <time>2022-10-21T09:33:20.694Z</time>
      </trkpt>
      <trkpt lat="48.701503" lon="11.324258">
        <ele>378.739969</ele>
        <time>2022-10-21T09:34:14.409Z</time>
      </trkpt>
      <trkpt lat="48.701474" lon="11.324798">
        <ele>379.110770</ele>
        <time>2022-10-21T09:34:51.793Z</time>
      </trkpt>
      <trkpt lat="48.701275" lon="11.325473">
        <ele>379.616741</ele>
        <time>2022-10-21T09:35:42.863Z</time>
      </trkpt>
      <trkpt lat="48.701234" lon="11.325842">
        <ele>379.872841</ele>
        <time>2022-10-21T09:36:08.602Z</time>
      </trkpt>
      <trkpt lat="48.701280" lon="11.326665">
        <ele>380.438126</ele>
        <time>2022-10-21T09:37:05.313Z</time>
      </trkpt>
      <trkpt lat="48.701681" lon="11.327901">
        <ele>380.646852</ele>
        <time>2022-10-21T09:38:37.999Z</time>
      </trkpt>
      <trkpt lat="48.702031" lon="11.329209">
        <ele>380.726212</ele>
        <time>2022-10-21T09:40:12.074Z</time>
      </trkpt>
      <trkpt lat="48.702290" lon="11.330200">
        <ele>380.777079</ele>
        <time>2022-10-21T09:41:22.682Z</time>
      </trkpt>
      <trkpt lat="48.702296" lon="11.330224">
        <ele>380.778269</ele>
        <time>2022-10-21T09:41:24.579Z</time>
      </trkpt>
      <trkpt lat="48.702690" lon="11.331110">
        <ele>380.827817</ele>
        <time>2022-10-21T09:42:36.076Z</time>
      </trkpt>
      <trkpt lat="48.703300" lon="11.332709">
        <ele>380.585644</ele>
        <time>2022-10-21T09:44:38.970Z</time>
      </trkpt>
      <trkpt lat="48.703537" lon="11.333119">
        <ele>380.453617</ele>
        <time>2022-10-21T09:45:15.215Z</time>
      </trkpt>
      <trkpt lat="48.705053" lon="11.333881">
        <ele>379.259373</ele>
        <time>2022-10-21T09:47:58.448Z</time>
      </trkpt>
      <trkpt lat="48.705302" lon="11.333943">
        <ele>378.997775</ele>
        <time>2022-10-21T09:48:24.501Z</time>
      </trkpt>
      <trkpt lat="48.705464" lon="11.333914">
        <ele>378.828662</ele>
        <time>2022-10-21T09:48:41.269Z</time>
      </trkpt>
      <trkpt lat="48.705921" lon="11.333442">
        <ele>378.308147</ele>
        <time>2022-10-21T09:49:37.758Z</time>
      </trkpt>
      <trkpt lat="48.706211" lon="11.333181">
        <ele>378.187551</ele>
        <time>2022-10-21T09:50:11.929Z</time>
      </trkpt>
      <trkpt lat="48.706406" lon="11.332792">
        <ele>378.072289</ele>
        <time>2022-10-21T09:50:44.387Z</time>
      </trkpt>
      <trkpt lat="48.706528" lon="11.332479">
        <ele>377.986518</ele>
        <time>2022-10-21T09:51:08.469Z</time>
      </trkpt>
      <trkpt lat="48.706614" lon="11.331915">
        <ele>377.849937</ele>
        <time>2022-10-21T09:51:46.846Z</time>
      </trkpt>
      <trkpt lat="48.706626" lon="11.331588">
        <ele>377.772663</ele>
        <time>2022-10-21T09:52:08.581Z</time>
      </trkpt>
      <trkpt lat="48.706513" lon="11.330924">
        <ele>377.724301</ele>
        <time>2022-10-21T09:52:53.995Z</time>
      </trkpt>
      <trkpt lat="48.706604" lon="11.328885">
        <ele>377.909102</ele>
        <time>2022-10-21T09:55:10.039Z</time>
      </trkpt>
      <trkpt lat="48.706561" lon="11.326549">
        <ele>377.889860</ele>
        <time>2022-10-21T09:57:45.380Z</time>
      </trkpt>
      <trkpt lat="48.706519" lon="11.326552">
        <ele>377.888286</ele>
        <time>2022-10-21T09:57:49.660Z</time>
      </trkpt>
      <trkpt lat="48.706561" lon="11.326549">
        <ele>377.886712</ele>
        <time>2022-10-21T09:57:53.973Z</time>
      </trkpt>
      <trkpt lat="48.706563" lon="11.326227">
        <ele>377.878756</ele>
        <time>2022-10-21T09:58:15.353Z</time>
      </trkpt>
      <trkpt lat="48.706491" lon="11.325865">
        <ele>377.791144</ele>
        <time>2022-10-21T09:58:40.622Z</time>
      </trkpt>
      <trkpt lat="48.706373" lon="11.326068">
        <ele>377.581872</ele>
        <time>2022-10-21T09:58:58.887Z</time>
      </trkpt>
      <trkpt lat="48.705852" lon="11.326082">
        <ele>376.971038</ele>
        <time>2022-10-21T09:59:52.241Z</time>
      </trkpt>
      <trkpt lat="48.705142" lon="11.325465">
        <ele>376.011592</ele>
        <time>2022-10-21T10:01:16.848Z</time>
      </trkpt>
      <trkpt lat="48.704902" lon="11.325039">
        <ele>375.761691</ele>
        <time>2022-10-21T10:01:54.982Z</time>
      </trkpt>
      <trkpt lat="48.704698" lon="11.324850">
        <ele>375.758878</ele>
        <time>2022-10-21T10:02:19.350Z</time>
      </trkpt>
      <trkpt lat="48.704585" lon="11.324328">
        <ele>375.754612</ele>
        <time>2022-10-21T10:02:55.940Z</time>
      </trkpt>
      <trkpt lat="48.704149" lon="11.323733">
        <ele>375.747710</ele>
        <time>2022-10-21T10:03:55.078Z</time>
      </trkpt>
      <trkpt lat="48.704075" lon="11.323464">
        <ele>375.745447</ele>
        <time>2022-10-21T10:04:14.877Z</time>
      </trkpt>
      <trkpt lat="48.703831" lon="11.323287">
        <ele>375.755363</ele>
        <time>2022-10-21T10:04:43.041Z</time>
      </trkpt>
      <trkpt lat="48.703840" lon="11.322212">
        <ele>376.618100</ele>
        <time>2022-10-21T10:05:57.805Z</time>
      </trkpt>
      <trkpt lat="48.703782" lon="11.321678">
        <ele>377.052390</ele>
        <time>2022-10-21T10:06:35.697Z</time>
      </trkpt>
      <trkpt lat="48.703759" lon="11.321465">
        <ele>377.225592</ele>
        <time>2022-10-21T10:06:50.887Z</time>
      </trkpt>
      <trkpt lat="48.703736" lon="11.320722">
        <ele>377.822492</ele>
        <time>2022-10-21T10:07:42.905Z</time>
      </trkpt>
      <trkpt lat="48.704006" lon="11.316977">
        <ele>377.229020</ele>
        <time>2022-10-21T10:11:53.217Z</time>
      </trkpt>
      <trkpt lat="48.705354" lon="11.317292">
        <ele>376.068398</ele>
        <time>2022-10-21T10:14:13.151Z</time>
      </trkpt>
      <trkpt lat="48.705767" lon="11.317445">
        <ele>375.744295</ele>
        <time>2022-10-21T10:14:56.661Z</time>
      </trkpt>
      <trkpt lat="48.705913" lon="11.317722">
        <ele>375.565955</ele>
        <time>2022-10-21T10:15:20.869Z</time>
      </trkpt>
      <trkpt lat="48.705986" lon="11.317666">
        <ele>375.503583</ele>
        <time>2022-10-21T10:15:29.304Z</time>
      </trkpt>
      <trkpt lat="48.706565" lon="11.317670">
        <ele>375.062204</ele>
        <time>2022-10-21T10:16:28.278Z</time>
      </trkpt>
      <trkpt lat="48.706603" lon="11.317671">
        <ele>375.033233</ele>
        <time>2022-10-21T10:16:32.272Z</time>
      </trkpt>
      <trkpt lat="48.706640" lon="11.317545">
        <ele>374.963855</ele>
        <time>2022-10-21T10:16:41.792Z</time>
      </trkpt>
      <trkpt lat="48.706646" lon="11.317379">
        <ele>374.880223</ele>
        <time>2022-10-21T10:16:52.847Z</time>
      </trkpt>
      <trkpt lat="48.706666" lon="11.317276">
        <ele>374.826212</ele>
        <time>2022-10-21T10:17:00.336Z</time>
      </trkpt>
      <trkpt lat="48.707950" lon="11.317287">
        <ele>374.439327</ele>
        <time>2022-10-21T10:19:08.929Z</time>
      </trkpt>
      <trkpt lat="48.707994" lon="11.317287">
        <ele>374.426136</ele>
        <time>2022-10-21T10:19:13.576Z</time>
      </trkpt>
      <trkpt lat="48.708083" lon="11.317377">
        <ele>374.394061</ele>
        <time>2022-10-21T10:19:24.586Z</time>
      </trkpt>
      <trkpt lat="48.708182" lon="11.317630">
        <ele>374.335875</ele>
        <time>2022-10-21T10:19:44.175Z</time>
      </trkpt>
      <trkpt lat="48.708591" lon="11.318878">
        <ele>374.094804</ele>
        <time>2022-10-21T10:21:16.847Z</time>
      </trkpt>
      <trkpt lat="48.709023" lon="11.319721">
        <ele>373.916321</ele>
        <time>2022-10-21T10:22:27.537Z</time>
      </trkpt>
      <trkpt lat="48.709830" lon="11.320769">
        <ele>373.655920</ele>
        <time>2022-10-21T10:24:14.346Z</time>
      </trkpt>
      <trkpt lat="48.710573" lon="11.321502">
        <ele>373.442323</ele>
        <time>2022-10-21T10:25:43.774Z</time>
      </trkpt>
      <trkpt lat="48.710547" lon="11.321578">
        <ele>373.428713</ele>
        <time>2022-10-21T10:25:49.463Z</time>
      </trkpt>
      <trkpt lat="48.710748" lon="11.321848">
        <ele>373.433457</ele>
        <time>2022-10-21T10:26:16.345Z</time>
      </trkpt>
      <trkpt lat="48.710795" lon="11.321911">
        <ele>373.452600</ele>
        <time>2022-10-21T10:26:22.609Z</time>
      </trkpt>
      <trkpt lat="48.710893" lon="11.322042">
        <ele>373.492467</ele>
        <time>2022-10-21T10:26:35.861Z</time>
      </trkpt>
      <trkpt lat="48.711314" lon="11.322613">
        <ele>373.664835</ele>
        <time>2022-10-21T10:27:32.866Z</time>
      </trkpt>
      <trkpt lat="48.711613" lon="11.322947">
        <ele>373.778158</ele>
        <time>2022-10-21T10:28:10.680Z</time>
      </trkpt>
      <trkpt lat="48.711661" lon="11.323000">
        <ele>373.796277</ele>
        <time>2022-10-21T10:28:16.770Z</time>
      </trkpt>
      <trkpt lat="48.712147" lon="11.323331">
        <ele>373.967861</ele>
        <time>2022-10-21T10:29:11.063Z</time>
      </trkpt>
      <trkpt lat="48.712674" lon="11.323567">
        <ele>374.233522</ele>
        <time>2022-10-21T10:30:06.841Z</time>
      </trkpt>
      <trkpt lat="48.713174" lon="11.323657">
        <ele>374.476939</ele>
        <time>2022-10-21T10:30:59.138Z</time>
      </trkpt>
      <trkpt lat="48.713552" lon="11.323648">
        <ele>374.659700</ele>
        <time>2022-10-21T10:31:37.676Z</time>
      </trkpt>
      <trkpt lat="48.713556" lon="11.323732">
        <ele>374.686564</ele>
        <time>2022-10-21T10:31:43.285Z</time>
      </trkpt>
      <trkpt lat="48.713676" lon="11.323723">
        <ele>374.744648</ele>
        <time>2022-10-21T10:31:55.419Z</time>
      </trkpt>
      <trkpt lat="48.714625" lon="11.323542">
        <ele>374.785821</ele>
        <time>2022-10-21T10:33:31.377Z</time>
      </trkpt>
      <trkpt lat="48.714988" lon="11.323560">
        <ele>374.773749</ele>
        <time>2022-10-21T10:34:07.763Z</time>
      </trkpt>
      <trkpt lat="48.715304" lon="11.323398">
        <ele>374.762662</ele>
        <time>2022-10-21T10:34:41.337Z</time>
      </trkpt>
      <trkpt lat="48.715540" lon="11.323110">
        <ele>374.752320</ele>
        <time>2022-10-21T10:35:11.797Z</time>
      </trkpt>
      <trkpt lat="48.715633" lon="11.322943">
        <ele>374.745150</ele>
        <time>2022-10-21T10:35:26.274Z</time>
      </trkpt>
      <trkpt lat="48.715835" lon="11.322581">
        <ele>374.729595</ele>
        <time>2022-10-21T10:35:57.746Z</time>
      </trkpt>
      <trkpt lat="48.715952" lon="11.322372">
        <ele>374.720602</ele>
        <time>2022-10-21T10:36:15.990Z</time>
      </trkpt>
      <trkpt lat="48.716051" lon="11.322195">
        <ele>374.712989</ele>
        <time>2022-10-21T10:36:31.485Z</time>
      </trkpt>
      <trkpt lat="48.716150" lon="11.322017">
        <ele>374.705351</ele>
        <time>2022-10-21T10:36:46.908Z</time>
      </trkpt>
      <trkpt lat="48.716211" lon="11.321909">
        <ele>374.700687</ele>
        <time>2022-10-21T10:36:56.275Z</time>
      </trkpt>
      <trkpt lat="48.716466" lon="11.321608">
        <ele>374.684614</ele>
        <time>2022-10-21T10:37:28.879Z</time>
      </trkpt>
      <trkpt lat="48.716597" lon="11.321898">
        <ele>374.673083</ele>
        <time>2022-10-21T10:37:52.380Z</time>
      </trkpt>
      <trkpt lat="48.716653" lon="11.322092">
        <ele>374.666136</ele>
        <time>2022-10-21T10:38:06.426Z</time>
      </trkpt>
      <trkpt lat="48.716695" lon="11.322238">
        <ele>374.643096</ele>
        <time>2022-10-21T10:38:16.979Z</time>
      </trkpt>
      <trkpt lat="48.716730" lon="11.322363">
        <ele>374.610137</ele>
        <time>2022-10-21T10:38:25.959Z</time>
      </trkpt>
      <trkpt lat="48.716858" lon="11.322757">
        <ele>374.503542</ele>
        <time>2022-10-21T10:38:54.917Z</time>
      </trkpt>
      <trkpt lat="48.716808" lon="11.322931">
        <ele>374.457477</ele>
        <time>2022-10-21T10:39:07.516Z</time>
      </trkpt>
      <trkpt lat="48.716836" lon="11.323195">
        <ele>374.392577</ele>
        <time>2022-10-21T10:39:25.239Z</time>
      </trkpt>
      <trkpt lat="48.716898" lon="11.323525">
        <ele>374.309297</ele>
        <time>2022-10-21T10:39:48.053Z</time>
      </trkpt>
      <trkpt lat="48.716982" lon="11.323763">
        <ele>374.243784</ele>
        <time>2022-10-21T10:40:06.039Z</time>
      </trkpt>
      <trkpt lat="48.717070" lon="11.323947">
        <ele>374.188625</ele>
        <time>2022-10-21T10:40:21.222Z</time>
      </trkpt>
      <trkpt lat="48.717171" lon="11.324114">
        <ele>374.133639</ele>
        <time>2022-10-21T10:40:36.343Z</time>
      </trkpt>
      <trkpt lat="48.717224" lon="11.324188">
        <ele>374.107129</ele>
        <time>2022-10-21T10:40:43.646Z</time>
      </trkpt>
      <trkpt lat="48.717500" lon="11.324460">
        <ele>373.980449</ele>
        <time>2022-10-21T10:41:17.099Z</time>
      </trkpt>
      <trkpt lat="48.717576" lon="11.324528">
        <ele>373.936677</ele>
        <time>2022-10-21T10:41:26.092Z</time>
      </trkpt>
      <trkpt lat="48.717624" lon="11.324594">
        <ele>373.904533</ele>
        <time>2022-10-21T10:41:32.719Z</time>
      </trkpt>
      <trkpt lat="48.717974" lon="11.325086">
        <ele>373.667775</ele>
        <time>2022-10-21T10:42:21.455Z</time>
      </trkpt>
      <trkpt lat="48.718067" lon="11.325237">
        <ele>373.600179</ele>
        <time>2022-10-21T10:42:35.380Z</time>
      </trkpt>
      <trkpt lat="48.718242" lon="11.325517">
        <ele>373.473971</ele>
        <time>2022-10-21T10:43:01.182Z</time>
      </trkpt>
      <trkpt lat="48.718338" lon="11.325672">
        <ele>373.404403</ele>
        <time>2022-10-21T10:43:15.369Z</time>
      </trkpt>
      <trkpt lat="48.718532" lon="11.326028">
        <ele>373.253311</ele>
        <time>2022-10-21T10:43:46.161Z</time>
      </trkpt>
      <trkpt lat="48.718643" lon="11.326370">
        <ele>373.128591</ele>
        <time>2022-10-21T10:44:11.394Z</time>
      </trkpt>
      <trkpt lat="48.718808" lon="11.327053">
        <ele>373.169251</ele>
        <time>2022-10-21T10:44:59.722Z</time>
      </trkpt>
      <trkpt lat="48.718753" lon="11.327082">
        <ele>373.177063</ele>
        <time>2022-10-21T10:45:05.634Z</time>
      </trkpt>
      <trkpt lat="48.718808" lon="11.327053">
        <ele>373.184874</ele>
        <time>2022-10-21T10:45:11.425Z</time>
      </trkpt>
      <trkpt lat="48.719093" lon="11.327087">
        <ele>373.223222</ele>
        <time>2022-10-21T10:45:40.143Z</time>
      </trkpt>
      <trkpt lat="48.719323" lon="11.327101">
        <ele>373.254099</ele>
        <time>2022-10-21T10:46:03.353Z</time>
      </trkpt>
      <trkpt lat="48.719363" lon="11.327104">
        <ele>373.259471</ele>
        <time>2022-10-21T10:46:07.605Z</time>
      </trkpt>
      <trkpt lat="48.719405" lon="11.327396">
        <ele>373.285919</ele>
        <time>2022-10-21T10:46:27.485Z</time>
      </trkpt>
      <trkpt lat="48.719470" lon="11.327789">
        <ele>373.321775</ele>
        <time>2022-10-21T10:46:54.660Z</time>
      </trkpt>
      <trkpt lat="48.719535" lon="11.328244">
        <ele>373.351197</ele>
        <time>2022-10-21T10:47:26.401Z</time>
      </trkpt>
      <trkpt lat="48.719544" lon="11.328312">
        <ele>373.351197</ele>
        <time>2022-10-21T10:47:31.042Z</time>
      </trkpt>
      <trkpt lat="48.719604" lon="11.328729">
        <ele>373.351197</ele>
        <time>2022-10-21T10:48:00.280Z</time>
      </trkpt>
      <trkpt lat="48.719619" lon="11.328837">
        <ele>373.351197</ele>
        <time>2022-10-21T10:48:07.707Z</time>
      </trkpt>
      <trkpt lat="48.719663" lon="11.329185">
        <ele>373.351197</ele>
        <time>2022-10-21T10:48:31.324Z</time>
      </trkpt>
      <trkpt lat="48.719690" lon="11.329405">
        <ele>373.351197</ele>
        <time>2022-10-21T10:48:46.347Z</time>
      </trkpt>
      <trkpt lat="48.719722" lon="11.329655">
        <ele>373.351197</ele>
        <time>2022-10-21T10:49:03.210Z</time>
      </trkpt>
      <trkpt lat="48.719752" lon="11.329900">
        <ele>373.351197</ele>
        <time>2022-10-21T10:49:19.658Z</time>
      </trkpt>
      <trkpt lat="48.719789" lon="11.330192">
        <ele>373.351197</ele>
        <time>2022-10-21T10:49:39.375Z</time>
      </trkpt>
      <trkpt lat="48.719803" lon="11.330307">
        <ele>373.351197</ele>
        <time>2022-10-21T10:49:47.116Z</time>
      </trkpt>
      <trkpt lat="48.719839" lon="11.330548">
        <ele>373.351197</ele>
        <time>2022-10-21T10:50:03.454Z</time>
      </trkpt>
    </trkseg>
  </trk>
</gpx>